Finchford, Iowa
Current Conditions -  °F | °C
As of 6:54 AM on Wednesday 22 Oct 2014 (Local Time) from KALO Reporting Station
Clear Clear  
Wind Chill: 29°   Ceiling: Unl
Heat Index: 36°   Visibility: 10mi
Dew Point: 34°   Wind: 9mph
Humidity: 93%   Direction: 120°ESE
Pressure: 30.27"   Gusts: NA
Location:  42.6537°N, 92.488°W
Report Text: KALO 221154Z 12008KT 10SM CLR 02/01 A3027 RMK AO2 SLP257 T00220011 10050 20017 51009
Loading
Personal Weather Stations






























Interactive Weather Map
Tropical Storm Tracking
New forecast layout! Learn more

10-Day Weather Forecast

Advertisements
Track Severe Weather on mobile